sensor_id;sensor_type;location;lat;lon;timestamp;P1;durP1;ratioP1;P2;durP2;ratioP2
78027;SDS011;67235;45.638;11.714;2023-03-05T00:00:54;87.40;;;44.10;;
78027;SDS011;67235;45.638;11.714;2023-03-05T00:06:03;76.97;;;40.63;;
78027;SDS011;67235;45.638;11.714;2023-03-05T00:08:32;84.57;;;42.63;;
78027;SDS011;67235;45.638;11.714;2023-03-05T00:13:42;81.57;;;42.03;;
78027;SDS011;67235;45.638;11.714;2023-03-05T00:16:23;77.38;;;41.03;;
78027;SDS011;67235;45.638;11.714;2023-03-05T00:19:34;79.20;;;41.35;;
78027;SDS011;67235;45.638;11.714;2023-03-05T00:22:41;78.85;;;40.50;;
78027;SDS011;67235;45.638;11.714;2023-03-05T00:25:11;79.85;;;41.05;;
78027;SDS011;67235;45.638;11.714;2023-03-05T00:27:53;78.10;;;39.93;;
78027;SDS011;67235;45.638;11.714;2023-03-05T00:30:20;75.07;;;37.75;;
78027;SDS011;67235;45.638;11.714;2023-03-05T00:32:53;84.90;;;42.45;;
78027;SDS011;67235;45.638;11.714;2023-03-05T00:35:19;84.68;;;41.28;;
78027;SDS011;67235;45.638;11.714;2023-03-05T00:37:46;80.13;;;41.08;;
78027;SDS011;67235;45.638;11.714;2023-03-05T00:40:39;79.93;;;41.45;;
78027;SDS011;67235;45.638;11.714;2023-03-05T00:43:08;86.75;;;43.97;;
78027;SDS011;67235;45.638;11.714;2023-03-05T00:45:37;92.82;;;44.00;;
78027;SDS011;67235;45.638;11.714;2023-03-05T00:48:05;89.55;;;43.33;;
78027;SDS011;67235;45.638;11.714;2023-03-05T00:50:58;95.00;;;45.93;;
78027;SDS011;67235;45.638;11.714;2023-03-05T00:53:31;109.82;;;50.15;;
78027;SDS011;67235;45.638;11.714;2023-03-05T00:56:06;111.35;;;51.08;;
78027;SDS011;67235;45.638;11.714;2023-03-05T00:58:35;93.43;;;45.03;;
78027;SDS011;67235;45.638;11.714;2023-03-05T01:01:11;83.65;;;42.20;;
78027;SDS011;67235;45.638;11.714;2023-03-05T01:03:39;79.60;;;38.63;;
78027;SDS011;67235;45.638;11.714;2023-03-05T01:06:08;76.22;;;36.58;;
78027;SDS011;67235;45.638;11.714;2023-03-05T01:08:50;77.55;;;37.38;;
78027;SDS011;67235;45.638;11.714;2023-03-05T01:11:17;86.13;;;40.85;;
78027;SDS011;67235;45.638;11.714;2023-03-05T01:13:43;84.22;;;41.63;;
78027;SDS011;67235;45.638;11.714;2023-03-05T01:16:10;86.83;;;44.13;;
78027;SDS011;67235;45.638;11.714;2023-03-05T01:18:38;85.90;;;42.63;;
78027;SDS011;67235;45.638;11.714;2023-03-05T01:21:07;81.43;;;40.95;;
78027;SDS011;67235;45.638;11.714;2023-03-05T01:23:41;74.18;;;39.97;;
78027;SDS011;67235;45.638;11.714;2023-03-05T01:26:22;83.80;;;41.25;;
78027;SDS011;67235;45.638;11.714;2023-03-05T01:28:50;76.83;;;36.97;;
78027;SDS011;67235;45.638;11.714;2023-03-05T01:31:15;68.53;;;35.80;;
78027;SDS011;67235;45.638;11.714;2023-03-05T01:33:41;73.25;;;37.97;;
78027;SDS011;67235;45.638;11.714;2023-03-05T01:36:08;83.87;;;40.03;;
78027;SDS011;67235;45.638;11.714;2023-03-05T01:38:43;69.50;;;36.00;;
78027;SDS011;67235;45.638;11.714;2023-03-05T01:41:11;71.47;;;36.70;;
78027;SDS011;67235;45.638;11.714;2023-03-05T01:43:39;78.90;;;37.05;;
78027;SDS011;67235;45.638;11.714;2023-03-05T01:51:36;72.47;;;35.22;;
78027;SDS011;67235;45.638;11.714;2023-03-05T01:54:06;72.47;;;36.22;;
78027;SDS011;67235;45.638;11.714;2023-03-05T01:56:34;70.55;;;36.33;;
78027;SDS011;67235;45.638;11.714;2023-03-05T01:59:01;70.87;;;35.40;;
78027;SDS011;67235;45.638;11.714;2023-03-05T02:01:29;76.50;;;37.63;;
78027;SDS011;67235;45.638;11.714;2023-03-05T02:04:03;71.22;;;35.47;;
78027;SDS011;67235;45.638;11.714;2023-03-05T02:06:29;72.95;;;37.05;;
78027;SDS011;67235;45.638;11.714;2023-03-05T02:08:55;70.72;;;35.13;;
78027;SDS011;67235;45.638;11.714;2023-03-05T02:11:21;64.97;;;33.23;;
78027;SDS011;67235;45.638;11.714;2023-03-05T02:13:47;72.72;;;34.67;;
78027;SDS011;67235;45.638;11.714;2023-03-05T02:16:13;70.07;;;36.53;;
78027;SDS011;67235;45.638;11.714;2023-03-05T02:18:39;73.67;;;35.87;;
78027;SDS011;67235;45.638;11.714;2023-03-05T02:21:08;71.95;;;35.67;;
78027;SDS011;67235;45.638;11.714;2023-03-05T02:23:35;79.50;;;38.53;;
78027;SDS011;67235;45.638;11.714;2023-03-05T02:26:03;73.45;;;37.67;;
78027;SDS011;67235;45.638;11.714;2023-03-05T02:28:34;77.73;;;37.40;;
78027;SDS011;67235;45.638;11.714;2023-03-05T02:31:15;79.15;;;39.08;;
78027;SDS011;67235;45.638;11.714;2023-03-05T02:33:42;66.97;;;33.90;;
78027;SDS011;67235;45.638;11.714;2023-03-05T02:36:09;71.07;;;36.17;;
78027;SDS011;67235;45.638;11.714;2023-03-05T02:38:36;73.90;;;37.22;;
78027;SDS011;67235;45.638;11.714;2023-03-05T02:41:02;66.30;;;33.43;;
78027;SDS011;67235;45.638;11.714;2023-03-05T02:43:28;69.00;;;34.70;;
78027;SDS011;67235;45.638;11.714;2023-03-05T02:45:54;76.95;;;35.53;;
78027;SDS011;67235;45.638;11.714;2023-03-05T02:48:20;75.03;;;37.63;;
78027;SDS011;67235;45.638;11.714;2023-03-05T02:50:46;67.18;;;35.13;;
78027;SDS011;67235;45.638;11.714;2023-03-05T02:53:12;60.58;;;34.05;;
78027;SDS011;67235;45.638;11.714;2023-03-05T02:55:38;66.77;;;35.23;;
78027;SDS011;67235;45.638;11.714;2023-03-05T02:58:04;65.75;;;33.42;;
78027;SDS011;67235;45.638;11.714;2023-03-05T03:00:30;68.93;;;34.42;;
78027;SDS011;67235;45.638;11.714;2023-03-05T03:02:56;66.43;;;34.57;;
78027;SDS011;67235;45.638;11.714;2023-03-05T03:05:22;59.97;;;32.92;;
78027;SDS011;67235;45.638;11.714;2023-03-05T03:07:48;57.58;;;31.60;;
78027;SDS011;67235;45.638;11.714;2023-03-05T03:10:14;65.68;;;34.60;;
78027;SDS011;67235;45.638;11.714;2023-03-05T03:12:40;69.77;;;35.30;;
78027;SDS011;67235;45.638;11.714;2023-03-05T03:15:08;64.72;;;32.50;;
78027;SDS011;67235;45.638;11.714;2023-03-05T03:17:36;63.80;;;34.33;;
78027;SDS011;67235;45.638;11.714;2023-03-05T03:20:06;66.90;;;35.08;;
78027;SDS011;67235;45.638;11.714;2023-03-05T03:22:34;73.47;;;36.13;;
78027;SDS011;67235;45.638;11.714;2023-03-05T03:25:01;66.95;;;32.65;;
78027;SDS011;67235;45.638;11.714;2023-03-05T03:27:28;67.82;;;32.85;;
78027;SDS011;67235;45.638;11.714;2023-03-05T03:29:54;59.30;;;32.83;;
78027;SDS011;67235;45.638;11.714;2023-03-05T03:32:20;55.20;;;28.77;;
78027;SDS011;67235;45.638;11.714;2023-03-05T03:34:46;58.53;;;31.25;;
78027;SDS011;67235;45.638;11.714;2023-03-05T03:37:12;69.25;;;32.03;;
78027;SDS011;67235;45.638;11.714;2023-03-05T03:39:39;60.77;;;32.53;;
78027;SDS011;67235;45.638;11.714;2023-03-05T03:42:04;59.40;;;31.27;;
78027;SDS011;67235;45.638;11.714;2023-03-05T03:44:30;66.55;;;33.42;;
78027;SDS011;67235;45.638;11.714;2023-03-05T03:46:56;63.65;;;34.17;;
78027;SDS011;67235;45.638;11.714;2023-03-05T03:49:23;63.95;;;32.47;;
78027;SDS011;67235;45.638;11.714;2023-03-05T03:51:51;57.28;;;32.53;;
78027;SDS011;67235;45.638;11.714;2023-03-05T03:54:21;68.85;;;32.92;;
78027;SDS011;67235;45.638;11.714;2023-03-05T03:56:47;71.73;;;35.03;;
78027;SDS011;67235;45.638;11.714;2023-03-05T03:59:13;65.72;;;31.90;;
78027;SDS011;67235;45.638;11.714;2023-03-05T04:01:39;66.22;;;34.10;;
78027;SDS011;67235;45.638;11.714;2023-03-05T04:04:05;58.65;;;30.25;;
78027;SDS011;67235;45.638;11.714;2023-03-05T04:06:32;64.43;;;31.55;;
78027;SDS011;67235;45.638;11.714;2023-03-05T04:08:58;63.78;;;32.38;;
78027;SDS011;67235;45.638;11.714;2023-03-05T04:11:24;55.65;;;30.95;;
78027;SDS011;67235;45.638;11.714;2023-03-05T04:13:50;60.63;;;31.37;;
78027;SDS011;67235;45.638;11.714;2023-03-05T04:16:16;65.63;;;33.28;;
78027;SDS011;67235;45.638;11.714;2023-03-05T04:18:43;61.42;;;30.70;;
78027;SDS011;67235;45.638;11.714;2023-03-05T04:21:10;70.80;;;32.92;;
78027;SDS011;67235;45.638;11.714;2023-03-05T04:23:36;62.30;;;31.07;;
78027;SDS011;67235;45.638;11.714;2023-03-05T04:26:03;62.20;;;28.75;;
78027;SDS011;67235;45.638;11.714;2023-03-05T04:28:29;62.53;;;31.00;;
78027;SDS011;67235;45.638;11.714;2023-03-05T04:30:55;60.28;;;30.77;;
78027;SDS011;67235;45.638;11.714;2023-03-05T04:33:21;64.00;;;33.20;;
78027;SDS011;67235;45.638;11.714;2023-03-05T04:35:47;62.80;;;32.20;;
78027;SDS011;67235;45.638;11.714;2023-03-05T04:38:14;65.43;;;32.65;;
78027;SDS011;67235;45.638;11.714;2023-03-05T04:40:40;60.63;;;31.15;;
78027;SDS011;67235;45.638;11.714;2023-03-05T04:43:06;59.80;;;30.57;;
78027;SDS011;67235;45.638;11.714;2023-03-05T04:45:32;59.15;;;30.48;;
78027;SDS011;67235;45.638;11.714;2023-03-05T04:47:58;58.00;;;29.77;;
78027;SDS011;67235;45.638;11.714;2023-03-05T04:50:24;59.03;;;29.02;;
78027;SDS011;67235;45.638;11.714;2023-03-05T04:52:50;61.33;;;30.70;;
78027;SDS011;67235;45.638;11.714;2023-03-05T04:55:16;59.78;;;29.75;;
78027;SDS011;67235;45.638;11.714;2023-03-05T04:57:42;61.72;;;31.48;;
78027;SDS011;67235;45.638;11.714;2023-03-05T05:00:10;80.23;;;36.70;;
78027;SDS011;67235;45.638;11.714;2023-03-05T05:02:39;75.90;;;34.70;;
78027;SDS011;67235;45.638;11.714;2023-03-05T05:05:08;73.90;;;33.75;;
78027;SDS011;67235;45.638;11.714;2023-03-05T05:07:38;69.65;;;32.13;;
78027;SDS011;67235;45.638;11.714;2023-03-05T05:10:04;67.45;;;31.23;;
78027;SDS011;67235;45.638;11.714;2023-03-05T05:12:32;60.77;;;28.93;;
78027;SDS011;67235;45.638;11.714;2023-03-05T05:14:58;66.70;;;30.55;;
78027;SDS011;67235;45.638;11.714;2023-03-05T05:17:25;61.55;;;30.15;;
78027;SDS011;67235;45.638;11.714;2023-03-05T05:19:54;58.63;;;28.67;;
78027;SDS011;67235;45.638;11.714;2023-03-05T05:22:20;64.60;;;29.63;;
78027;SDS011;67235;45.638;11.714;2023-03-05T05:24:45;60.53;;;31.20;;
78027;SDS011;67235;45.638;11.714;2023-03-05T05:27:11;57.83;;;28.80;;
78027;SDS011;67235;45.638;11.714;2023-03-05T05:29:37;60.25;;;29.33;;
78027;SDS011;67235;45.638;11.714;2023-03-05T05:32:03;65.32;;;31.45;;
78027;SDS011;67235;45.638;11.714;2023-03-05T05:34:29;67.13;;;31.83;;
78027;SDS011;67235;45.638;11.714;2023-03-05T05:36:55;65.40;;;31.25;;
78027;SDS011;67235;45.638;11.714;2023-03-05T05:39:20;67.45;;;31.90;;
78027;SDS011;67235;45.638;11.714;2023-03-05T05:41:49;63.83;;;30.70;;
78027;SDS011;67235;45.638;11.714;2023-03-05T05:44:16;68.65;;;32.35;;
78027;SDS011;67235;45.638;11.714;2023-03-05T05:46:42;64.32;;;30.05;;
78027;SDS011;67235;45.638;11.714;2023-03-05T05:49:08;61.83;;;29.27;;
78027;SDS011;67235;45.638;11.714;2023-03-05T05:51:34;68.13;;;31.27;;
78027;SDS011;67235;45.638;11.714;2023-03-05T05:53:59;64.43;;;30.50;;
78027;SDS011;67235;45.638;11.714;2023-03-05T05:56:25;70.00;;;32.00;;
78027;SDS011;67235;45.638;11.714;2023-03-05T05:58:51;60.85;;;28.65;;
78027;SDS011;67235;45.638;11.714;2023-03-05T06:01:19;60.37;;;29.87;;
78027;SDS011;67235;45.638;11.714;2023-03-05T06:03:50;61.60;;;29.02;;
78027;SDS011;67235;45.638;11.714;2023-03-05T06:06:18;61.00;;;30.13;;
78027;SDS011;67235;45.638;11.714;2023-03-05T06:08:45;61.28;;;30.55;;
78027;SDS011;67235;45.638;11.714;2023-03-05T06:11:11;54.90;;;27.02;;
78027;SDS011;67235;45.638;11.714;2023-03-05T06:13:38;52.03;;;27.27;;
78027;SDS011;67235;45.638;11.714;2023-03-05T06:16:05;50.53;;;25.90;;
78027;SDS011;67235;45.638;11.714;2023-03-05T06:18:33;51.50;;;25.67;;
78027;SDS011;67235;45.638;11.714;2023-03-05T06:21:04;53.03;;;26.52;;
78027;SDS011;67235;45.638;11.714;2023-03-05T06:23:35;53.63;;;27.27;;
78027;SDS011;67235;45.638;11.714;2023-03-05T06:26:02;51.53;;;24.50;;
78027;SDS011;67235;45.638;11.714;2023-03-05T06:28:30;41.67;;;23.33;;
78027;SDS011;67235;45.638;11.714;2023-03-05T06:31:03;47.50;;;24.08;;
78027;SDS011;67235;45.638;11.714;2023-03-05T06:33:31;49.42;;;24.85;;
78027;SDS011;67235;45.638;11.714;2023-03-05T06:35:57;44.65;;;24.50;;
78027;SDS011;67235;45.638;11.714;2023-03-05T06:38:23;48.07;;;25.00;;
78027;SDS011;67235;45.638;11.714;2023-03-05T06:40:49;42.45;;;24.40;;
78027;SDS011;67235;45.638;11.714;2023-03-05T06:43:16;48.10;;;25.60;;
78027;SDS011;67235;45.638;11.714;2023-03-05T06:45:42;46.65;;;24.67;;
78027;SDS011;67235;45.638;11.714;2023-03-05T06:48:08;45.47;;;26.17;;
78027;SDS011;67235;45.638;11.714;2023-03-05T06:50:34;43.50;;;23.58;;
78027;SDS011;67235;45.638;11.714;2023-03-05T06:53:00;45.70;;;24.20;;
78027;SDS011;67235;45.638;11.714;2023-03-05T06:55:26;43.72;;;24.13;;
78027;SDS011;67235;45.638;11.714;2023-03-05T06:57:52;39.67;;;21.88;;
78027;SDS011;67235;45.638;11.714;2023-03-05T07:00:18;41.28;;;22.30;;
78027;SDS011;67235;45.638;11.714;2023-03-05T07:02:44;40.55;;;22.33;;
78027;SDS011;67235;45.638;11.714;2023-03-05T07:05:10;39.73;;;22.13;;
78027;SDS011;67235;45.638;11.714;2023-03-05T07:07:36;42.50;;;21.40;;
78027;SDS011;67235;45.638;11.714;2023-03-05T07:10:02;47.92;;;23.00;;
78027;SDS011;67235;45.638;11.714;2023-03-05T07:12:31;43.40;;;23.77;;
78027;SDS011;67235;45.638;11.714;2023-03-05T07:14:58;51.35;;;24.77;;
78027;SDS011;67235;45.638;11.714;2023-03-05T07:17:25;41.60;;;23.67;;
78027;SDS011;67235;45.638;11.714;2023-03-05T07:19:51;44.83;;;23.75;;
78027;SDS011;67235;45.638;11.714;2023-03-05T07:22:17;38.10;;;23.65;;
78027;SDS011;67235;45.638;11.714;2023-03-05T07:24:43;41.58;;;24.33;;
78027;SDS011;67235;45.638;11.714;2023-03-05T07:27:09;44.67;;;23.83;;
78027;SDS011;67235;45.638;11.714;2023-03-05T07:29:35;36.28;;;22.08;;
78027;SDS011;67235;45.638;11.714;2023-03-05T07:32:00;45.50;;;25.60;;
78027;SDS011;67235;45.638;11.714;2023-03-05T07:34:27;40.47;;;24.60;;
78027;SDS011;67235;45.638;11.714;2023-03-05T07:36:52;35.65;;;23.63;;
78027;SDS011;67235;45.638;11.714;2023-03-05T07:39:18;34.95;;;22.63;;
78027;SDS011;67235;45.638;11.714;2023-03-05T07:41:45;35.37;;;23.27;;
78027;SDS011;67235;45.638;11.714;2023-03-05T07:44:11;36.97;;;24.92;;
78027;SDS011;67235;45.638;11.714;2023-03-05T07:46:37;32.33;;;23.85;;
78027;SDS011;67235;45.638;11.714;2023-03-05T07:49:03;34.45;;;23.05;;
78027;SDS011;67235;45.638;11.714;2023-03-05T07:51:29;31.40;;;22.97;;
78027;SDS011;67235;45.638;11.714;2023-03-05T07:53:56;33.28;;;23.10;;
78027;SDS011;67235;45.638;11.714;2023-03-05T07:58:53;31.52;;;23.02;;
78027;SDS011;67235;45.638;11.714;2023-03-05T08:01:19;34.90;;;24.88;;
78027;SDS011;67235;45.638;11.714;2023-03-05T08:03:44;31.23;;;23.03;;
78027;SDS011;67235;45.638;11.714;2023-03-05T08:06:11;30.40;;;22.13;;
78027;SDS011;67235;45.638;11.714;2023-03-05T08:08:38;30.45;;;21.17;;
78027;SDS011;67235;45.638;11.714;2023-03-05T08:11:09;30.95;;;24.08;;
78027;SDS011;67235;45.638;11.714;2023-03-05T08:13:38;32.80;;;25.23;;
78027;SDS011;67235;45.638;11.714;2023-03-05T08:16:13;37.22;;;26.00;;
78027;SDS011;67235;45.638;11.714;2023-03-05T08:18:42;32.35;;;25.10;;
78027;SDS011;67235;45.638;11.714;2023-03-05T08:21:20;32.53;;;22.77;;
78027;SDS011;67235;45.638;11.714;2023-03-05T08:23:50;27.50;;;20.35;;
78027;SDS011;67235;45.638;11.714;2023-03-05T08:26:18;25.27;;;18.83;;
78027;SDS011;67235;45.638;11.714;2023-03-05T08:28:46;28.40;;;21.13;;
78027;SDS011;67235;45.638;11.714;2023-03-05T08:31:15;25.35;;;19.92;;
78027;SDS011;67235;45.638;11.714;2023-03-05T08:33:42;25.55;;;19.13;;
78027;SDS011;67235;45.638;11.714;2023-03-05T08:36:09;22.70;;;18.15;;
78027;SDS011;67235;45.638;11.714;2023-03-05T08:38:35;26.87;;;19.13;;
78027;SDS011;67235;45.638;11.714;2023-03-05T08:41:01;34.63;;;14.98;;
78027;SDS011;67235;45.638;11.714;2023-03-05T08:43:27;23.60;;;15.18;;
78027;SDS011;67235;45.638;11.714;2023-03-05T08:45:55;22.58;;;15.70;;
78027;SDS011;67235;45.638;11.714;2023-03-05T08:48:21;20.58;;;15.27;;
78027;SDS011;67235;45.638;11.714;2023-03-05T08:50:47;21.20;;;14.63;;
78027;SDS011;67235;45.638;11.714;2023-03-05T08:53:13;20.67;;;15.32;;
78027;SDS011;67235;45.638;11.714;2023-03-05T08:55:39;20.85;;;14.45;;
78027;SDS011;67235;45.638;11.714;2023-03-05T08:58:06;21.08;;;14.38;;
78027;SDS011;67235;45.638;11.714;2023-03-05T09:00:35;19.80;;;14.73;;
78027;SDS011;67235;45.638;11.714;2023-03-05T09:03:00;20.25;;;15.48;;
78027;SDS011;67235;45.638;11.714;2023-03-05T09:05:26;18.98;;;15.50;;
78027;SDS011;67235;45.638;11.714;2023-03-05T09:07:53;20.57;;;15.90;;
78027;SDS011;67235;45.638;11.714;2023-03-05T09:10:22;21.13;;;15.25;;
78027;SDS011;67235;45.638;11.714;2023-03-05T09:12:48;17.15;;;13.35;;
78027;SDS011;67235;45.638;11.714;2023-03-05T09:15:14;19.13;;;13.27;;
78027;SDS011;67235;45.638;11.714;2023-03-05T09:17:40;18.67;;;14.35;;
78027;SDS011;67235;45.638;11.714;2023-03-05T09:20:09;22.17;;;15.15;;
78027;SDS011;67235;45.638;11.714;2023-03-05T09:22:37;21.58;;;15.70;;
78027;SDS011;67235;45.638;11.714;2023-03-05T09:25:03;21.03;;;15.80;;
78027;SDS011;67235;45.638;11.714;2023-03-05T09:27:35;23.25;;;16.58;;
78027;SDS011;67235;45.638;11.714;2023-03-05T09:30:03;20.50;;;16.70;;
78027;SDS011;67235;45.638;11.714;2023-03-05T09:32:30;23.65;;;16.33;;
78027;SDS011;67235;45.638;11.714;2023-03-05T09:34:57;25.85;;;17.45;;
78027;SDS011;67235;45.638;11.714;2023-03-05T09:37:23;21.63;;;16.50;;
78027;SDS011;67235;45.638;11.714;2023-03-05T09:39:49;20.15;;;14.52;;
78027;SDS011;67235;45.638;11.714;2023-03-05T09:47:44;23.00;;;13.93;;
78027;SDS011;67235;45.638;11.714;2023-03-05T09:50:34;20.73;;;13.55;;
78027;SDS011;67235;45.638;11.714;2023-03-05T09:53:11;19.02;;;13.25;;
78027;SDS011;67235;45.638;11.714;2023-03-05T09:55:49;20.08;;;13.43;;
78027;SDS011;67235;45.638;11.714;2023-03-05T10:00:52;20.30;;;14.30;;
78027;SDS011;67235;45.638;11.714;2023-03-05T10:04:05;24.27;;;14.20;;
78027;SDS011;67235;45.638;11.714;2023-03-05T10:06:24;20.90;;;14.77;;
78027;SDS011;67235;45.638;11.714;2023-03-05T10:08:54;18.90;;;14.13;;
78027;SDS011;67235;45.638;11.714;2023-03-05T10:11:41;19.80;;;14.52;;
78027;SDS011;67235;45.638;11.714;2023-03-05T10:14:28;22.63;;;15.83;;
78027;SDS011;67235;45.638;11.714;2023-03-05T10:17:01;24.50;;;14.93;;
78027;SDS011;67235;45.638;11.714;2023-03-05T10:23:10;23.52;;;15.63;;
78027;SDS011;67235;45.638;11.714;2023-03-05T10:25:56;22.05;;;15.02;;
78027;SDS011;67235;45.638;11.714;2023-03-05T10:37:00;24.02;;;16.30;;
78027;SDS011;67235;45.638;11.714;2023-03-05T10:44:58;25.60;;;16.10;;
78027;SDS011;67235;45.638;11.714;2023-03-05T10:47:43;26.08;;;15.98;;
78027;SDS011;67235;45.638;11.714;2023-03-05T10:50:23;25.77;;;16.40;;
78027;SDS011;67235;45.638;11.714;2023-03-05T10:53:10;22.92;;;15.40;;
78027;SDS011;67235;45.638;11.714;2023-03-05T10:55:47;23.83;;;16.23;;
78027;SDS011;67235;45.638;11.714;2023-03-05T10:58:15;25.13;;;15.85;;
78027;SDS011;67235;45.638;11.714;2023-03-05T11:01:02;24.60;;;17.20;;
78027;SDS011;67235;45.638;11.714;2023-03-05T11:06:28;25.67;;;17.88;;
78027;SDS011;67235;45.638;11.714;2023-03-05T11:11:43;26.40;;;17.35;;
78027;SDS011;67235;45.638;11.714;2023-03-05T11:14:28;27.25;;;18.10;;
78027;SDS011;67235;45.638;11.714;2023-03-05T11:17:01;30.45;;;18.40;;
78027;SDS011;67235;45.638;11.714;2023-03-05T11:19:46;27.88;;;17.58;;
78027;SDS011;67235;45.638;11.714;2023-03-05T11:22:16;27.43;;;16.77;;
78027;SDS011;67235;45.638;11.714;2023-03-05T11:27:38;27.52;;;18.23;;
78027;SDS011;67235;45.638;11.714;2023-03-05T11:30:28;31.73;;;18.52;;
78027;SDS011;67235;45.638;11.714;2023-03-05T11:33:06;29.85;;;17.10;;
78027;SDS011;67235;45.638;11.714;2023-03-05T11:35:39;27.42;;;16.45;;
78027;SDS011;67235;45.638;11.714;2023-03-05T11:38:24;29.02;;;17.77;;
78027;SDS011;67235;45.638;11.714;2023-03-05T11:40:51;31.63;;;18.20;;
78027;SDS011;67235;45.638;11.714;2023-03-05T11:43:20;31.80;;;17.83;;
78027;SDS011;67235;45.638;11.714;2023-03-05T11:45:49;30.58;;;18.70;;
78027;SDS011;67235;45.638;11.714;2023-03-05T11:48:20;30.45;;;18.33;;
78027;SDS011;67235;45.638;11.714;2023-03-05T11:50:57;35.55;;;19.73;;
78027;SDS011;67235;45.638;11.714;2023-03-05T11:53:32;30.38;;;18.33;;
78027;SDS011;67235;45.638;11.714;2023-03-05T11:56:18;32.85;;;19.33;;
78027;SDS011;67235;45.638;11.714;2023-03-05T11:58:54;32.58;;;19.70;;
78027;SDS011;67235;45.638;11.714;2023-03-05T12:01:30;30.30;;;18.98;;
78027;SDS011;67235;45.638;11.714;2023-03-05T12:03:57;33.28;;;20.40;;
78027;SDS011;67235;45.638;11.714;2023-03-05T12:09:20;38.05;;;21.75;;
78027;SDS011;67235;45.638;11.714;2023-03-05T12:12:11;35.75;;;21.50;;
78027;SDS011;67235;45.638;11.714;2023-03-05T12:20:55;37.35;;;22.42;;
78027;SDS011;67235;45.638;11.714;2023-03-05T12:23:22;36.63;;;22.02;;
78027;SDS011;67235;45.638;11.714;2023-03-05T12:25:54;37.20;;;22.33;;
78027;SDS011;67235;45.638;11.714;2023-03-05T12:31:05;35.28;;;22.75;;
78027;SDS011;67235;45.638;11.714;2023-03-05T12:33:40;37.38;;;22.33;;
78027;SDS011;67235;45.638;11.714;2023-03-05T12:38:48;33.20;;;20.17;;
78027;SDS011;67235;45.638;11.714;2023-03-05T12:49:38;33.28;;;19.85;;
78027;SDS011;67235;45.638;11.714;2023-03-05T12:52:04;35.00;;;19.58;;
78027;SDS011;67235;45.638;11.714;2023-03-05T12:54:46;33.67;;;19.98;;
78027;SDS011;67235;45.638;11.714;2023-03-05T12:57:25;36.15;;;19.85;;
78027;SDS011;67235;45.638;11.714;2023-03-05T13:04:59;33.08;;;20.20;;
78027;SDS011;67235;45.638;11.714;2023-03-05T13:07:27;32.35;;;19.45;;
78027;SDS011;67235;45.638;11.714;2023-03-05T13:09:53;35.83;;;19.58;;
78027;SDS011;67235;45.638;11.714;2023-03-05T13:12:21;33.17;;;20.20;;
78027;SDS011;67235;45.638;11.714;2023-03-05T13:14:56;34.50;;;20.08;;
78027;SDS011;67235;45.638;11.714;2023-03-05T13:19:55;36.00;;;20.65;;
78027;SDS011;67235;45.638;11.714;2023-03-05T13:22:21;33.33;;;20.47;;
78027;SDS011;67235;45.638;11.714;2023-03-05T13:27:48;34.83;;;20.15;;
78027;SDS011;67235;45.638;11.714;2023-03-05T13:30:19;32.95;;;19.70;;
78027;SDS011;67235;45.638;11.714;2023-03-05T13:32:49;34.23;;;20.00;;
78027;SDS011;67235;45.638;11.714;2023-03-05T13:35:17;32.63;;;20.17;;
78027;SDS011;67235;45.638;11.714;2023-03-05T13:37:44;32.40;;;20.35;;
78027;SDS011;67235;45.638;11.714;2023-03-05T13:40:18;33.83;;;20.63;;
78027;SDS011;67235;45.638;11.714;2023-03-05T13:42:44;33.65;;;20.60;;
78027;SDS011;67235;45.638;11.714;2023-03-05T13:45:24;37.03;;;20.93;;
78027;SDS011;67235;45.638;11.714;2023-03-05T13:47:53;36.45;;;19.77;;
78027;SDS011;67235;45.638;11.714;2023-03-05T13:50:37;37.45;;;21.05;;
78027;SDS011;67235;45.638;11.714;2023-03-05T13:55:47;38.08;;;20.55;;
78027;SDS011;67235;45.638;11.714;2023-03-05T14:03:49;34.83;;;21.33;;
78027;SDS011;67235;45.638;11.714;2023-03-05T14:06:20;34.10;;;20.55;;
78027;SDS011;67235;45.638;11.714;2023-03-05T14:08:51;33.72;;;20.35;;
78027;SDS011;67235;45.638;11.714;2023-03-05T14:11:19;69.53;;;21.20;;
78027;SDS011;67235;45.638;11.714;2023-03-05T14:13:46;36.75;;;20.50;;
78027;SDS011;67235;45.638;11.714;2023-03-05T14:16:45;36.90;;;21.05;;
78027;SDS011;67235;45.638;11.714;2023-03-05T14:19:04;33.20;;;19.55;;
78027;SDS011;67235;45.638;11.714;2023-03-05T14:21:44;41.83;;;22.42;;
78027;SDS011;67235;45.638;11.714;2023-03-05T14:24:19;34.47;;;21.08;;
78027;SDS011;67235;45.638;11.714;2023-03-05T14:26:51;34.60;;;20.77;;
78027;SDS011;67235;45.638;11.714;2023-03-05T14:29:44;35.95;;;21.42;;
78027;SDS011;67235;45.638;11.714;2023-03-05T14:32:27;35.20;;;20.17;;
78027;SDS011;67235;45.638;11.714;2023-03-05T14:34:57;36.33;;;20.65;;
78027;SDS011;67235;45.638;11.714;2023-03-05T14:37:34;33.40;;;20.05;;
78027;SDS011;67235;45.638;11.714;2023-03-05T14:42:51;37.25;;;19.45;;
78027;SDS011;67235;45.638;11.714;2023-03-05T14:45:24;34.13;;;20.90;;
78027;SDS011;67235;45.638;11.714;2023-03-05T14:47:54;33.50;;;19.63;;
78027;SDS011;67235;45.638;11.714;2023-03-05T14:50:23;33.78;;;19.75;;
78027;SDS011;67235;45.638;11.714;2023-03-05T14:52:54;33.20;;;18.77;;
78027;SDS011;67235;45.638;11.714;2023-03-05T14:55:25;32.78;;;19.58;;
78027;SDS011;67235;45.638;11.714;2023-03-05T14:58:16;34.67;;;19.40;;
78027;SDS011;67235;45.638;11.714;2023-03-05T15:00:52;32.42;;;19.55;;
78027;SDS011;67235;45.638;11.714;2023-03-05T15:03:23;36.22;;;19.25;;
78027;SDS011;67235;45.638;11.714;2023-03-05T15:05:51;31.38;;;18.17;;
78027;SDS011;67235;45.638;11.714;2023-03-05T15:08:24;36.47;;;19.42;;
78027;SDS011;67235;45.638;11.714;2023-03-05T15:10:52;36.17;;;20.58;;
78027;SDS011;67235;45.638;11.714;2023-03-05T15:13:19;30.35;;;17.73;;
78027;SDS011;67235;45.638;11.714;2023-03-05T15:15:46;33.85;;;17.75;;
78027;SDS011;67235;45.638;11.714;2023-03-05T15:18:15;33.97;;;17.90;;
78027;SDS011;67235;45.638;11.714;2023-03-05T15:20:43;28.98;;;17.77;;
78027;SDS011;67235;45.638;11.714;2023-03-05T15:23:10;32.63;;;16.92;;
78027;SDS011;67235;45.638;11.714;2023-03-05T15:25:38;34.25;;;18.13;;
78027;SDS011;67235;45.638;11.714;2023-03-05T15:28:04;30.65;;;17.05;;
78027;SDS011;67235;45.638;11.714;2023-03-05T15:30:35;35.22;;;17.65;;
78027;SDS011;67235;45.638;11.714;2023-03-05T15:33:07;30.60;;;17.63;;
78027;SDS011;67235;45.638;11.714;2023-03-05T15:35:38;29.38;;;16.10;;
78027;SDS011;67235;45.638;11.714;2023-03-05T15:38:04;28.88;;;17.08;;
78027;SDS011;67235;45.638;11.714;2023-03-05T15:40:31;29.65;;;17.08;;
78027;SDS011;67235;45.638;11.714;2023-03-05T15:42:57;34.40;;;16.55;;
78027;SDS011;67235;45.638;11.714;2023-03-05T15:45:23;32.08;;;17.35;;
78027;SDS011;67235;45.638;11.714;2023-03-05T15:47:50;29.75;;;16.88;;
78027;SDS011;67235;45.638;11.714;2023-03-05T15:50:17;32.97;;;18.73;;
78027;SDS011;67235;45.638;11.714;2023-03-05T15:52:44;36.20;;;19.02;;
78027;SDS011;67235;45.638;11.714;2023-03-05T15:55:10;35.03;;;18.13;;